createdAt,value
2023-02-08T00:01:15.004Z,-1.10
2023-02-08T00:03:43.314Z,-1.10
2023-02-08T00:06:11.886Z,-1.10
2023-02-08T00:08:40.495Z,-1.10
2023-02-08T00:11:10.628Z,-1.10
2023-02-08T00:13:42.285Z,-1.20
2023-02-08T00:16:12.220Z,-1.10
2023-02-08T00:18:40.357Z,-1.20
2023-02-08T00:21:10.214Z,-1.20
2023-02-08T00:23:38.467Z,-1.20
2023-02-08T00:26:07.260Z,-1.20
2023-02-08T00:28:35.433Z,-1.20
2023-02-08T00:31:05.293Z,-1.20
2023-02-08T00:33:33.566Z,-1.20
2023-02-08T00:36:02.382Z,-1.20
2023-02-08T00:38:30.776Z,-1.30
2023-02-08T00:40:58.760Z,-1.30
2023-02-08T00:43:26.933Z,-1.30
2023-02-08T00:45:56.572Z,-0.90
2023-02-08T00:48:26.449Z,-1.30
2023-02-08T00:51:02.104Z,-1.40
2023-02-08T00:53:30.212Z,-1.30
2023-02-08T00:55:58.673Z,-1.30
2023-02-08T00:58:26.662Z,-1.40
2023-02-08T01:00:55.319Z,-1.40
2023-02-08T01:03:25.148Z,-0.70
2023-02-08T01:05:53.779Z,-1.40
2023-02-08T01:08:22.117Z,-1.40
2023-02-08T01:10:50.115Z,-1.10
2023-02-08T01:13:18.383Z,-1.40
2023-02-08T01:15:46.475Z,-1.50
2023-02-08T01:18:14.464Z,-1.00
2023-02-08T01:20:43.909Z,-1.50
2023-02-08T01:23:11.890Z,-1.50
2023-02-08T01:25:39.841Z,-1.10
2023-02-08T01:28:07.893Z,-1.50
2023-02-08T01:30:35.996Z,-1.00
2023-02-08T01:33:04.075Z,-1.50
2023-02-08T01:35:32.066Z,-1.50
2023-02-08T01:38:01.435Z,-1.60
2023-02-08T01:40:29.513Z,-1.60
2023-02-08T01:42:57.519Z,-1.60
2023-02-08T01:45:28.909Z,-1.60
2023-02-08T01:48:07.358Z,-1.60
2023-02-08T01:50:42.214Z,-1.60
2023-02-08T01:53:12.342Z,-1.60
2023-02-08T01:55:44.401Z,-1.60
2023-02-08T01:58:14.338Z,-1.10
2023-02-08T02:00:42.765Z,-1.60
2023-02-08T02:03:11.074Z,-1.60
2023-02-08T02:05:42.395Z,-1.70
2023-02-08T02:08:13.242Z,-1.60
2023-02-08T02:10:43.197Z,-1.70
2023-02-08T02:13:13.618Z,-1.70
2023-02-08T02:15:43.161Z,-1.70
2023-02-08T02:18:12.066Z,-1.70
2023-02-08T02:21:10.382Z,-1.70
2023-02-08T02:24:11.595Z,-1.70
2023-02-08T02:27:08.341Z,-1.70
2023-02-08T02:30:09.464Z,-1.80
2023-02-08T02:32:58.312Z,-1.80
2023-02-08T02:35:37.057Z,-1.80
2023-02-08T02:38:13.106Z,-1.80
2023-02-08T02:40:51.297Z,-1.80
2023-02-08T02:43:41.476Z,-1.80
2023-02-08T02:46:16.932Z,-1.80
2023-02-08T02:48:51.550Z,-1.20
2023-02-08T02:51:27.362Z,-1.80
2023-02-08T02:54:01.166Z,-1.90
2023-02-08T02:56:32.679Z,-1.90
2023-02-08T02:59:04.845Z,-1.90
2023-02-08T03:01:33.151Z,-1.90
2023-02-08T03:04:13.287Z,-1.90
2023-02-08T03:06:56.556Z,-1.90
2023-02-08T03:09:41.141Z,-0.80
2023-02-08T03:12:23.399Z,-1.90
2023-02-08T03:14:59.929Z,-1.90
2023-02-08T03:17:40.490Z,-0.70
2023-02-08T03:20:12.848Z,-1.90
2023-02-08T03:22:52.749Z,-1.90
2023-02-08T03:25:24.739Z,-2.00
2023-02-08T03:28:02.810Z,-2.00
2023-02-08T03:30:35.273Z,-2.00
2023-02-08T03:33:08.137Z,-2.60
2023-02-08T03:35:42.998Z,-2.00
2023-02-08T03:38:16.829Z,-2.00
2023-02-08T03:40:47.548Z,-1.00
2023-02-08T03:43:19.718Z,-2.00
2023-02-08T03:45:48.790Z,-2.00
2023-02-08T03:48:19.770Z,-2.00
2023-02-08T03:50:53.478Z,-2.00
2023-02-08T03:53:24.048Z,-2.10
2023-02-08T03:55:57.559Z,-2.10
2023-02-08T03:58:29.842Z,-2.10
2023-02-08T04:01:04.257Z,-1.00
2023-02-08T04:03:33.976Z,-2.10
2023-02-08T04:06:03.689Z,-2.10
2023-02-08T04:08:31.879Z,-2.10
2023-02-08T04:11:00.181Z,-2.10
2023-02-08T04:13:28.174Z,-2.10
2023-02-08T04:15:56.233Z,-2.10
2023-02-08T04:18:24.316Z,-2.20
2023-02-08T04:20:52.326Z,-2.20
2023-02-08T04:23:21.738Z,-2.20
2023-02-08T04:25:49.831Z,-2.20
2023-02-08T04:28:17.878Z,-2.20
2023-02-08T04:30:45.945Z,-2.20
2023-02-08T04:33:14.965Z,-2.20
2023-02-08T04:35:43.258Z,-2.20
2023-02-08T04:38:11.360Z,-2.20
2023-02-08T04:40:41.042Z,-2.20
2023-02-08T04:43:09.195Z,-2.20
2023-02-08T04:45:37.701Z,-2.20
2023-02-08T04:48:07.450Z,-2.20
2023-02-08T04:50:35.815Z,-2.20
2023-02-08T04:53:04.025Z,-2.20
2023-02-08T04:55:32.038Z,-2.20
2023-02-08T04:58:01.632Z,-2.20
2023-02-08T05:00:29.674Z,-1.30
2023-02-08T05:02:59.556Z,-2.20
2023-02-08T05:05:28.430Z,-2.30
2023-02-08T05:07:56.593Z,-2.30
2023-02-08T05:10:24.621Z,-2.30
2023-02-08T05:12:52.592Z,-2.20
2023-02-08T05:15:22.154Z,-2.30
2023-02-08T05:17:50.222Z,-2.20
2023-02-08T05:20:18.343Z,-2.30
2023-02-08T05:22:46.461Z,-2.20
2023-02-08T05:25:14.430Z,-2.20
2023-02-08T05:27:42.406Z,-2.20
2023-02-08T05:30:11.147Z,-2.20
2023-02-08T05:32:40.702Z,-2.30
2023-02-08T05:35:09.389Z,-2.30
2023-02-08T05:37:37.421Z,-2.30
2023-02-08T05:40:05.839Z,-1.80
2023-02-08T05:42:33.801Z,-2.20
2023-02-08T05:45:01.804Z,-2.20
2023-02-08T05:47:29.813Z,-2.20
2023-02-08T05:49:59.205Z,-2.30
2023-02-08T05:52:27.198Z,-2.30
2023-02-08T05:54:55.205Z,-2.30
2023-02-08T05:57:23.237Z,-1.50
2023-02-08T05:59:51.380Z,-2.30
2023-02-08T06:02:19.385Z,-2.40
2023-02-08T06:04:47.391Z,-2.40
2023-02-08T06:07:16.740Z,-2.40
2023-02-08T06:09:44.708Z,-2.40
2023-02-08T06:12:12.709Z,-2.40
2023-02-08T06:14:40.664Z,-2.40
2023-02-08T06:17:08.653Z,-2.40
2023-02-08T06:19:36.652Z,-2.40
2023-02-08T06:22:04.644Z,-2.40
2023-02-08T06:24:34.026Z,-2.50
2023-02-08T06:27:02.214Z,-2.50
2023-02-08T06:29:30.229Z,-2.50
2023-02-08T06:31:58.325Z,-2.50
2023-02-08T06:34:26.368Z,-2.50
2023-02-08T06:36:54.491Z,-2.50
2023-02-08T06:39:22.475Z,-2.50
2023-02-08T06:41:51.796Z,-2.50
2023-02-08T06:44:22.273Z,-1.50
2023-02-08T06:46:50.250Z,-2.60
2023-02-08T06:49:18.264Z,-2.60
2023-02-08T06:51:46.252Z,-2.60
2023-02-08T06:54:15.574Z,-2.60
2023-02-08T06:56:43.708Z,-2.60
2023-02-08T06:59:13.118Z,-2.60
2023-02-08T07:01:41.135Z,-2.60
2023-02-08T07:04:09.119Z,-2.60
2023-02-08T07:06:37.154Z,-2.60
2023-02-08T07:09:05.266Z,-2.60
2023-02-08T07:11:33.328Z,-2.60
2023-02-08T07:14:01.290Z,-2.60
2023-02-08T07:16:30.715Z,-2.60
2023-02-08T07:18:58.704Z,-2.70
2023-02-08T07:21:27.544Z,-2.70
2023-02-08T07:23:55.664Z,-2.70
2023-02-08T07:26:23.664Z,-2.70
2023-02-08T07:28:51.627Z,-2.70
2023-02-08T07:31:19.897Z,-2.70
2023-02-08T07:33:49.498Z,-2.70
2023-02-08T07:36:17.559Z,-2.70
2023-02-08T07:38:45.596Z,-1.70
2023-02-08T07:41:15.345Z,-2.70
2023-02-08T07:43:43.971Z,-2.70
2023-02-08T07:46:13.942Z,-2.60
2023-02-08T07:48:43.504Z,-2.70
2023-02-08T07:51:13.767Z,-2.60
2023-02-08T07:53:42.000Z,-2.60
2023-02-08T07:56:10.791Z,-2.60
2023-02-08T07:58:39.010Z,-2.50
2023-02-08T08:01:21.058Z,-2.50
2023-02-08T08:03:51.220Z,-2.50
2023-02-08T08:06:21.200Z,-2.50
2023-02-08T08:08:49.545Z,-2.50
2023-02-08T08:11:18.742Z,-2.50
2023-02-08T08:13:46.850Z,-2.50
2023-02-08T08:16:15.350Z,-2.50
2023-02-08T08:18:43.662Z,-2.40
2023-02-08T08:21:12.074Z,-2.40
2023-02-08T08:23:41.408Z,-2.40
2023-02-08T08:26:11.072Z,-1.90
2023-02-08T08:28:39.281Z,-2.40
2023-02-08T08:31:11.992Z,-2.30
2023-02-08T08:33:40.148Z,-2.20
2023-02-08T08:36:09.195Z,-2.20
2023-02-08T08:38:38.690Z,-2.20
2023-02-08T08:41:10.225Z,-2.20
2023-02-08T08:43:38.339Z,-2.20
2023-02-08T08:46:07.784Z,-1.40
2023-02-08T08:48:36.508Z,-2.10
2023-02-08T08:51:04.816Z,-2.00
2023-02-08T08:53:32.833Z,-2.00
2023-02-08T08:56:00.896Z,-1.90
2023-02-08T08:58:30.973Z,-1.90
2023-02-08T09:01:00.273Z,-1.80
2023-02-08T09:03:29.605Z,-1.80
2023-02-08T09:05:57.911Z,-1.80
2023-02-08T09:08:25.986Z,-1.70
2023-02-08T09:10:53.993Z,-1.60
2023-02-08T09:13:22.054Z,-1.50
2023-02-08T09:15:51.501Z,-0.70
2023-02-08T09:18:19.543Z,-1.40
2023-02-08T09:20:47.580Z,-1.30
2023-02-08T09:23:15.614Z,-1.20
2023-02-08T09:25:43.633Z,-1.20
2023-02-08T09:28:11.646Z,-0.30
2023-02-08T09:30:39.783Z,-1.00
2023-02-08T09:33:09.223Z,-0.90
2023-02-08T09:35:37.261Z,-0.80
2023-02-08T09:38:05.632Z,-0.80
2023-02-08T09:40:44.097Z,-0.80
2023-02-08T09:43:17.267Z,-0.60
2023-02-08T09:45:59.603Z,0.40
2023-02-08T09:48:32.744Z,0.40
2023-02-08T09:51:05.533Z,-0.40
2023-02-08T09:53:37.172Z,-0.20
2023-02-08T09:56:07.697Z,-0.20
2023-02-08T09:58:39.882Z,0.00
2023-02-08T10:01:08.714Z,0.60
2023-02-08T10:03:41.421Z,0.20
2023-02-08T10:06:13.303Z,0.40
2023-02-08T10:08:44.926Z,1.00
2023-02-08T10:11:31.521Z,0.30
2023-02-08T10:14:13.315Z,0.50
2023-02-08T10:16:58.206Z,1.10
2023-02-08T10:19:41.915Z,1.00
2023-02-08T10:22:21.298Z,1.10
2023-02-08T10:25:18.072Z,1.10
2023-02-08T10:27:56.772Z,0.90
2023-02-08T10:30:32.923Z,0.80
2023-02-08T10:33:02.930Z,1.00
2023-02-08T10:35:37.256Z,1.10
2023-02-08T10:38:25.174Z,1.20
2023-02-08T10:40:56.652Z,2.60
2023-02-08T10:43:32.148Z,1.40
2023-02-08T10:46:08.784Z,2.10
2023-02-08T10:48:47.726Z,1.50
2023-02-08T10:51:20.371Z,1.60
2023-02-08T10:53:49.370Z,2.00
2023-02-08T10:56:38.214Z,1.80
2023-02-08T10:59:15.240Z,1.80
2023-02-08T11:01:44.327Z,1.90
2023-02-08T11:04:14.535Z,2.10
2023-02-08T11:06:45.450Z,2.20
2023-02-08T11:09:24.897Z,2.20
2023-02-08T11:11:53.755Z,2.30
2023-02-08T11:14:30.380Z,2.20
2023-02-08T11:17:06.506Z,3.20
2023-02-08T11:19:39.185Z,2.40
2023-02-08T11:22:16.297Z,2.50
2023-02-08T11:24:50.268Z,2.50
2023-02-08T11:27:29.970Z,2.60
2023-02-08T11:30:20.426Z,2.70
2023-02-08T11:32:50.095Z,2.80
2023-02-08T11:35:25.512Z,2.80
2023-02-08T11:37:57.833Z,2.90
2023-02-08T11:40:27.546Z,2.90
2023-02-08T11:42:57.007Z,3.00
2023-02-08T11:45:28.895Z,3.10
2023-02-08T11:47:57.256Z,3.10
2023-02-08T11:50:27.263Z,3.20
2023-02-08T11:53:00.295Z,3.30
2023-02-08T11:55:30.622Z,3.30
2023-02-08T11:58:02.002Z,3.40
2023-02-08T12:00:32.437Z,3.40
2023-02-08T12:03:02.367Z,3.50
2023-02-08T12:05:41.463Z,3.50
2023-02-08T12:08:18.876Z,3.70
2023-02-08T12:11:09.917Z,3.80
2023-02-08T12:13:58.181Z,3.80
2023-02-08T12:16:44.568Z,3.90
2023-02-08T12:19:40.948Z,4.00
2023-02-08T12:22:13.097Z,4.10
2023-02-08T12:24:50.452Z,4.20
2023-02-08T12:27:31.152Z,4.30
2023-02-08T12:30:08.431Z,4.40
2023-02-08T12:33:02.637Z,4.40
2023-02-08T12:36:04.714Z,4.50
2023-02-08T12:39:19.644Z,4.70
2023-02-08T12:42:01.223Z,4.70
2023-02-08T12:44:40.637Z,4.80
2023-02-08T12:47:27.423Z,4.80
2023-02-08T12:50:07.068Z,4.90
2023-02-08T12:52:39.526Z,4.90
2023-02-08T12:55:18.610Z,5.10
2023-02-08T12:57:52.940Z,5.10
2023-02-08T13:00:24.431Z,5.20
2023-02-08T13:02:59.802Z,5.30
2023-02-08T13:05:34.069Z,6.40
2023-02-08T13:08:08.950Z,5.30
2023-02-08T13:10:41.271Z,5.40
2023-02-08T13:13:13.793Z,5.50
2023-02-08T13:15:46.556Z,5.60
2023-02-08T13:18:18.814Z,5.60
2023-02-08T13:20:50.260Z,5.70
2023-02-08T13:23:25.653Z,5.80
2023-02-08T13:25:58.072Z,5.90
2023-02-08T13:28:28.286Z,6.10
2023-02-08T13:31:01.237Z,6.20
2023-02-08T13:33:38.194Z,6.30
2023-02-08T13:36:13.264Z,6.50
2023-02-08T13:38:44.631Z,6.50
2023-02-08T13:41:17.770Z,6.60
2023-02-08T13:43:53.016Z,6.80
2023-02-08T13:46:23.016Z,6.90
2023-02-08T13:48:56.683Z,7.30
2023-02-08T13:51:58.636Z,7.20
2023-02-08T13:54:26.921Z,7.40
2023-02-08T13:56:56.025Z,7.60
2023-02-08T13:59:44.891Z,7.90
2023-02-08T14:02:27.050Z,7.90
2023-02-08T14:05:01.803Z,8.10
2023-02-08T14:07:42.165Z,8.30
2023-02-08T14:10:22.162Z,8.80
2023-02-08T14:12:57.821Z,8.50
2023-02-08T14:15:37.735Z,8.90
2023-02-08T14:18:20.835Z,8.60
2023-02-08T14:21:07.518Z,8.80
2023-02-08T14:23:40.590Z,8.70
2023-02-08T14:26:25.121Z,9.00
2023-02-08T14:28:56.794Z,8.90
2023-02-08T14:31:37.974Z,8.90
2023-02-08T14:34:06.149Z,8.80
2023-02-08T14:36:36.870Z,8.60
2023-02-08T14:39:23.355Z,8.50
2023-02-08T14:41:54.608Z,8.70
2023-02-08T14:45:02.897Z,8.50
2023-02-08T14:47:56.613Z,8.40
2023-02-08T14:50:29.485Z,8.30
2023-02-08T14:53:07.734Z,8.30
2023-02-08T14:55:43.149Z,8.20
2023-02-08T14:58:16.644Z,8.00
2023-02-08T15:00:45.679Z,8.10
2023-02-08T15:03:17.288Z,8.00
2023-02-08T15:05:58.649Z,7.80
2023-02-08T15:08:26.727Z,7.80
2023-02-08T15:10:54.778Z,7.80
2023-02-08T15:13:25.568Z,7.60
2023-02-08T15:15:57.991Z,7.50
2023-02-08T15:18:29.805Z,7.40
2023-02-08T15:21:03.403Z,7.50
2023-02-08T15:23:31.762Z,7.40
2023-02-08T15:26:03.027Z,7.50
2023-02-08T15:28:33.131Z,7.20
2023-02-08T15:31:05.107Z,7.20
2023-02-08T15:33:35.354Z,7.10
2023-02-08T15:36:06.980Z,7.10
2023-02-08T15:38:38.502Z,7.00
2023-02-08T15:41:09.320Z,7.00
2023-02-08T15:43:40.295Z,7.50
2023-02-08T15:46:18.337Z,6.90
2023-02-08T15:48:48.860Z,7.00
2023-02-08T15:51:20.227Z,7.30
2023-02-08T15:53:51.510Z,7.30
2023-02-08T15:56:36.342Z,6.60
2023-02-08T15:59:07.946Z,6.60
2023-02-08T16:01:36.123Z,6.50
2023-02-08T16:04:12.343Z,6.50
2023-02-08T16:06:46.213Z,6.30
2023-02-08T16:09:19.261Z,6.30
2023-02-08T16:11:49.966Z,6.30
2023-02-08T16:14:23.466Z,6.60
2023-02-08T16:16:55.693Z,6.10
2023-02-08T16:19:28.088Z,6.00
2023-02-08T16:21:56.767Z,5.90
2023-02-08T16:24:27.756Z,5.80
2023-02-08T16:27:00.389Z,5.80
2023-02-08T16:29:30.155Z,5.70
2023-02-08T16:32:03.338Z,5.60
2023-02-08T16:34:35.149Z,5.50
2023-02-08T16:37:05.691Z,5.50
2023-02-08T16:39:39.471Z,5.40
2023-02-08T16:42:19.680Z,5.70
2023-02-08T16:45:02.942Z,5.20
2023-02-08T16:47:37.564Z,5.10
2023-02-08T16:50:08.257Z,5.10
2023-02-08T16:52:37.016Z,5.00
2023-02-08T16:55:06.507Z,4.90
2023-02-08T16:57:42.640Z,4.80
2023-02-08T17:00:26.778Z,4.70
2023-02-08T17:02:55.682Z,4.70
2023-02-08T17:05:27.427Z,4.60
2023-02-08T17:07:55.717Z,4.50
2023-02-08T17:10:28.787Z,4.40
2023-02-08T17:13:13.424Z,4.30
2023-02-08T17:15:46.579Z,4.30
2023-02-08T17:18:14.998Z,4.50
2023-02-08T17:20:44.875Z,4.30
2023-02-08T17:23:15.428Z,4.10
2023-02-08T17:25:44.368Z,4.10
2023-02-08T17:28:17.505Z,4.00
2023-02-08T17:30:46.499Z,3.90
2023-02-08T17:33:18.392Z,3.90
2023-02-08T17:35:49.339Z,3.80
2023-02-08T17:38:17.723Z,3.70
2023-02-08T17:40:46.553Z,3.70
2023-02-08T17:43:14.776Z,3.60
2023-02-08T17:45:44.647Z,3.60
2023-02-08T17:48:14.298Z,3.50
2023-02-08T17:50:44.061Z,3.40
2023-02-08T17:53:13.823Z,3.40
2023-02-08T17:55:43.677Z,3.30
2023-02-08T17:58:12.653Z,3.20
2023-02-08T18:00:41.692Z,3.20
2023-02-08T18:03:12.227Z,3.10
2023-02-08T18:05:40.432Z,3.10
2023-02-08T18:08:08.481Z,3.00
2023-02-08T18:10:37.981Z,3.00
2023-02-08T18:13:06.003Z,2.90
2023-02-08T18:15:35.489Z,2.90
2023-02-08T18:18:03.493Z,2.80
2023-02-08T18:20:31.535Z,2.70
2023-02-08T18:22:59.579Z,2.70
2023-02-08T18:25:27.637Z,2.70
2023-02-08T18:27:57.363Z,2.60
2023-02-08T18:30:26.295Z,2.60
2023-02-08T18:32:54.467Z,2.50
2023-02-08T18:35:22.647Z,2.40
2023-02-08T18:37:50.662Z,2.50
2023-02-08T18:40:19.388Z,2.40
2023-02-08T18:42:47.485Z,2.30
2023-02-08T18:45:16.963Z,2.30
2023-02-08T18:47:44.967Z,2.50
2023-02-08T18:50:13.109Z,2.20
2023-02-08T18:52:41.104Z,2.20
2023-02-08T18:55:09.493Z,2.10
2023-02-08T18:57:38.884Z,2.10
2023-02-08T19:00:07.796Z,2.00
2023-02-08T19:02:39.442Z,2.00
2023-02-08T19:05:08.172Z,2.00
2023-02-08T19:07:36.452Z,1.90
2023-02-08T19:10:04.575Z,1.90
2023-02-08T19:12:32.557Z,2.20
2023-02-08T19:15:00.564Z,2.50
2023-02-08T19:17:28.633Z,1.80
2023-02-08T19:19:58.002Z,1.70
2023-02-08T19:22:26.120Z,1.80
2023-02-08T19:24:54.450Z,2.10
2023-02-08T19:27:22.506Z,1.60
2023-02-08T19:29:52.287Z,1.60
2023-02-08T19:32:20.387Z,2.60
2023-02-08T19:34:48.436Z,1.50
2023-02-08T19:37:17.769Z,2.00
2023-02-08T19:39:45.815Z,1.50
2023-02-08T19:42:14.069Z,2.50
2023-02-08T19:44:42.138Z,2.60
2023-02-08T19:47:10.167Z,1.30
2023-02-08T19:49:38.176Z,2.40
2023-02-08T19:52:06.222Z,1.40
2023-02-08T19:54:35.654Z,1.20
2023-02-08T19:57:03.625Z,1.10
2023-02-08T19:59:35.182Z,1.10
2023-02-08T20:02:03.517Z,1.50
2023-02-08T20:04:31.575Z,1.50
2023-02-08T20:06:59.840Z,0.90
2023-02-08T20:09:27.926Z,1.50
2023-02-08T20:11:58.179Z,1.10
2023-02-08T20:14:28.821Z,1.60
2023-02-08T20:16:57.362Z,1.20
2023-02-08T20:19:25.549Z,1.80
2023-02-08T20:21:54.201Z,1.80
2023-02-08T20:24:22.598Z,0.70
2023-02-08T20:26:51.473Z,0.70
2023-02-08T20:29:20.940Z,0.60
2023-02-08T20:31:52.030Z,0.60
2023-02-08T20:34:20.430Z,0.60
2023-02-08T20:37:05.871Z,0.50
2023-02-08T20:39:36.094Z,1.10
2023-02-08T20:42:04.503Z,1.50
2023-02-08T20:44:33.995Z,0.40
2023-02-08T20:47:02.304Z,0.40
2023-02-08T20:49:32.319Z,1.50
2023-02-08T20:52:00.549Z,1.10
2023-02-08T20:54:28.671Z,0.30
2023-02-08T20:56:56.710Z,0.30
2023-02-08T20:59:25.018Z,0.30
2023-02-08T21:01:54.558Z,0.20
2023-02-08T21:04:23.814Z,0.20
2023-02-08T21:06:53.010Z,0.20
2023-02-08T21:09:21.791Z,0.20
2023-02-08T21:11:50.733Z,0.90
2023-02-08T21:14:21.237Z,0.10
2023-02-08T21:16:51.389Z,0.10
2023-02-08T21:19:21.502Z,0.10
2023-02-08T21:21:51.393Z,0.00
2023-02-08T21:24:19.410Z,0.10
2023-02-08T21:26:47.443Z,0.00
2023-02-08T21:29:15.405Z,0.00
2023-02-08T21:31:43.486Z,-0.10
2023-02-08T21:34:12.849Z,0.00
2023-02-08T21:36:42.255Z,-0.10
2023-02-08T21:39:10.296Z,-0.10
2023-02-08T21:41:38.718Z,-0.10
2023-02-08T21:44:08.339Z,-0.10
2023-02-08T21:46:36.803Z,-0.10
2023-02-08T21:49:22.481Z,-0.20
2023-02-08T21:52:09.090Z,-0.20
2023-02-08T21:54:44.381Z,-0.20
2023-02-08T21:57:15.762Z,-0.20
2023-02-08T21:59:44.168Z,0.30
2023-02-08T22:02:15.338Z,-0.20
2023-02-08T22:04:46.784Z,-0.30
2023-02-08T22:07:16.490Z,-0.30
2023-02-08T22:09:44.753Z,-0.30
2023-02-08T22:12:15.847Z,-0.30
2023-02-08T22:14:44.410Z,-0.30
2023-02-08T22:17:12.550Z,0.50
2023-02-08T22:19:41.465Z,-0.40
2023-02-08T22:22:10.092Z,-0.40
2023-02-08T22:24:39.551Z,-0.40
2023-02-08T22:27:07.609Z,-0.30
2023-02-08T22:29:35.762Z,-0.50
2023-02-08T22:32:05.523Z,-0.50
2023-02-08T22:34:33.692Z,-0.50
2023-02-08T22:37:04.107Z,-0.50
2023-02-08T22:39:33.031Z,-0.50
2023-02-08T22:42:03.406Z,0.30
2023-02-08T22:44:31.374Z,-0.60
2023-02-08T22:47:01.630Z,-0.60
2023-02-08T22:49:29.736Z,-0.60
2023-02-08T22:51:57.690Z,-0.60
2023-02-08T22:54:25.809Z,-0.60
2023-02-08T22:56:53.796Z,-0.60
2023-02-08T22:59:23.105Z,-0.10
2023-02-08T23:01:51.154Z,-0.70
2023-02-08T23:04:19.150Z,-0.70
2023-02-08T23:06:48.754Z,-0.70
2023-02-08T23:09:17.084Z,-0.70
2023-02-08T23:11:45.121Z,0.20
2023-02-08T23:14:13.085Z,-0.70
2023-02-08T23:16:42.459Z,-0.80
2023-02-08T23:19:14.740Z,-0.80
2023-02-08T23:21:42.864Z,-0.80
2023-02-08T23:24:11.035Z,0.00
2023-02-08T23:26:39.959Z,-0.80
2023-02-08T23:29:08.066Z,-0.90
2023-02-08T23:31:36.224Z,-0.40
2023-02-08T23:34:05.697Z,-0.90
2023-02-08T23:36:33.649Z,-0.90
2023-02-08T23:39:03.331Z,0.00
2023-02-08T23:41:31.351Z,-1.00
2023-02-08T23:44:00.478Z,-1.00
2023-02-08T23:46:30.191Z,-1.00
2023-02-08T23:48:58.252Z,-0.50
2023-02-08T23:51:27.733Z,-1.00
2023-02-08T23:53:56.075Z,-1.10
2023-02-08T23:56:25.545Z,-1.10
2023-02-08T23:58:55.157Z,-0.80
